Impacts TAF Board INFO
FOR SITUATIONAL AWARENESS. NOT TO BE USED FOR FLIGHT PLANNING PURPOSES.
IDs:

KDTW - Detroit Metro/Wayne, MI, US

Issued at 1120 UTC 22 Feb 2018
Updated at 1433 UTC 22 Feb 2018
Potential Impact None Slight Moderate High
Time<<23/15Z 23/16Z 23/17Z 23/18Z 23/19Z 23/20Z 23/21Z 23/22Z 23/23Z 24/00Z 24/01Z 24/02Z 24/03Z
Type PRVL PRVL PRVL
VIS 5 5 5
CIG 12 12 12
Cover OVC OVC OVC
FltCat MVFR MVFR MVFR
WX -RA BR -RA BR -RA BR
WDir 120 120 120
WSpd 6 6 6
WGst -- -- --

Raw TAF
KDTW 221120Z 2212/2318 05012KT P6SM FEW012 OVC120
  FM221800 06010KT P6SM OVC100
  FM230400 08007KT P6SM BKN015 OVC035
  FM231000 10005KT P6SM -FZRA OVC015
  FM231300 12006KT 5SM -RA BR OVC012


METAR Board
Radar Display
Forecast Discussion

FOR SITUATIONAL AWARENESS. NOT TO BE USED FOR FLIGHT PLANNING PURPOSES.